sensor_id;sensor_type;location;lat;lon;timestamp;P1;durP1;ratioP1;P2;durP2;ratioP2
44218;SDS011;29889;52.034;5.570;2023-02-23T00:00:11;29.17;;;25.27;;
44218;SDS011;29889;52.034;5.570;2023-02-23T00:00:51;28.23;;;24.67;;
44218;SDS011;29889;52.034;5.570;2023-02-23T00:01:26;28.08;;;24.80;;
44218;SDS011;29889;52.034;5.570;2023-02-23T00:01:57;28.25;;;25.23;;
44218;SDS011;29889;52.034;5.570;2023-02-23T00:02:32;29.25;;;25.23;;
44218;SDS011;29889;52.034;5.570;2023-02-23T00:03:03;30.53;;;25.77;;
44218;SDS011;29889;52.034;5.570;2023-02-23T00:03:34;27.98;;;24.83;;
44218;SDS011;29889;52.034;5.570;2023-02-23T00:04:05;30.70;;;26.30;;
44218;SDS011;29889;52.034;5.570;2023-02-23T00:04:36;30.23;;;25.42;;
44218;SDS011;29889;52.034;5.570;2023-02-23T00:05:08;30.52;;;25.75;;
44218;SDS011;29889;52.034;5.570;2023-02-23T00:05:39;28.33;;;25.33;;
44218;SDS011;29889;52.034;5.570;2023-02-23T00:06:10;29.40;;;24.80;;
44218;SDS011;29889;52.034;5.570;2023-02-23T00:06:42;29.20;;;26.02;;
44218;SDS011;29889;52.034;5.570;2023-02-23T00:07:13;28.50;;;24.70;;
44218;SDS011;29889;52.034;5.570;2023-02-23T00:07:48;28.17;;;25.05;;
44218;SDS011;29889;52.034;5.570;2023-02-23T00:08:21;28.27;;;24.30;;
44218;SDS011;29889;52.034;5.570;2023-02-23T00:08:52;27.40;;;24.40;;
44218;SDS011;29889;52.034;5.570;2023-02-23T00:09:23;28.90;;;24.52;;
44218;SDS011;29889;52.034;5.570;2023-02-23T00:09:54;28.70;;;25.60;;
44218;SDS011;29889;52.034;5.570;2023-02-23T00:10:26;30.00;;;24.85;;
44218;SDS011;29889;52.034;5.570;2023-02-23T00:11:03;30.08;;;25.42;;
44218;SDS011;29889;52.034;5.570;2023-02-23T00:11:35;28.15;;;24.45;;
44218;SDS011;29889;52.034;5.570;2023-02-23T00:12:06;26.80;;;23.85;;
44218;SDS011;29889;52.034;5.570;2023-02-23T00:12:38;30.65;;;25.75;;
44218;SDS011;29889;52.034;5.570;2023-02-23T00:13:09;28.52;;;24.58;;
44218;SDS011;29889;52.034;5.570;2023-02-23T00:13:41;28.08;;;24.42;;
44218;SDS011;29889;52.034;5.570;2023-02-23T00:14:15;29.42;;;25.17;;
44218;SDS011;29889;52.034;5.570;2023-02-23T00:14:46;28.00;;;25.00;;
44218;SDS011;29889;52.034;5.570;2023-02-23T00:15:17;28.53;;;24.97;;
44218;SDS011;29889;52.034;5.570;2023-02-23T00:15:48;25.08;;;22.42;;
44218;SDS011;29889;52.034;5.570;2023-02-23T00:16:20;28.83;;;24.60;;
44218;SDS011;29889;52.034;5.570;2023-02-23T00:16:52;27.23;;;24.25;;
44218;SDS011;29889;52.034;5.570;2023-02-23T00:17:23;28.13;;;25.00;;
44218;SDS011;29889;52.034;5.570;2023-02-23T00:17:54;27.83;;;24.20;;
44218;SDS011;29889;52.034;5.570;2023-02-23T00:18:25;28.30;;;24.45;;
44218;SDS011;29889;52.034;5.570;2023-02-23T00:18:59;28.50;;;24.25;;
44218;SDS011;29889;52.034;5.570;2023-02-23T00:19:30;26.33;;;23.40;;
44218;SDS011;29889;52.034;5.570;2023-02-23T00:20:03;27.92;;;24.33;;
44218;SDS011;29889;52.034;5.570;2023-02-23T00:20:36;27.48;;;24.40;;
44218;SDS011;29889;52.034;5.570;2023-02-23T00:21:14;28.13;;;23.65;;
44218;SDS011;29889;52.034;5.570;2023-02-23T00:21:45;27.92;;;24.90;;
44218;SDS011;29889;52.034;5.570;2023-02-23T00:22:16;27.95;;;24.80;;
44218;SDS011;29889;52.034;5.570;2023-02-23T00:22:47;26.80;;;23.38;;
44218;SDS011;29889;52.034;5.570;2023-02-23T00:23:20;29.48;;;23.75;;
44218;SDS011;29889;52.034;5.570;2023-02-23T00:23:51;30.27;;;26.13;;
44218;SDS011;29889;52.034;5.570;2023-02-23T00:24:23;28.05;;;24.98;;
44218;SDS011;29889;52.034;5.570;2023-02-23T00:24:55;27.15;;;24.20;;
44218;SDS011;29889;52.034;5.570;2023-02-23T00:25:26;26.27;;;23.43;;
44218;SDS011;29889;52.034;5.570;2023-02-23T00:26:02;28.65;;;25.10;;
44218;SDS011;29889;52.034;5.570;2023-02-23T00:26:33;28.38;;;24.63;;
44218;SDS011;29889;52.034;5.570;2023-02-23T00:27:05;28.98;;;24.85;;
44218;SDS011;29889;52.034;5.570;2023-02-23T00:27:36;28.00;;;24.03;;
44218;SDS011;29889;52.034;5.570;2023-02-23T00:28:13;27.55;;;23.42;;
44218;SDS011;29889;52.034;5.570;2023-02-23T00:28:44;27.53;;;24.57;;
44218;SDS011;29889;52.034;5.570;2023-02-23T00:29:15;26.67;;;23.77;;
44218;SDS011;29889;52.034;5.570;2023-02-23T00:29:50;29.98;;;26.00;;
44218;SDS011;29889;52.034;5.570;2023-02-23T00:30:21;28.55;;;24.60;;
44218;SDS011;29889;52.034;5.570;2023-02-23T00:30:52;26.85;;;23.50;;
44218;SDS011;29889;52.034;5.570;2023-02-23T00:31:24;27.97;;;23.50;;
44218;SDS011;29889;52.034;5.570;2023-02-23T00:31:56;27.23;;;23.38;;
44218;SDS011;29889;52.034;5.570;2023-02-23T00:32:27;30.40;;;24.93;;
44218;SDS011;29889;52.034;5.570;2023-02-23T00:32:58;26.77;;;23.60;;
44218;SDS011;29889;52.034;5.570;2023-02-23T00:33:29;28.83;;;25.35;;
44218;SDS011;29889;52.034;5.570;2023-02-23T00:34:01;27.83;;;23.33;;
44218;SDS011;29889;52.034;5.570;2023-02-23T00:34:33;27.30;;;24.40;;
44218;SDS011;29889;52.034;5.570;2023-02-23T00:35:05;26.80;;;23.60;;
44218;SDS011;29889;52.034;5.570;2023-02-23T00:35:46;27.92;;;23.50;;
44218;SDS011;29889;52.034;5.570;2023-02-23T00:36:16;27.50;;;23.80;;
44218;SDS011;29889;52.034;5.570;2023-02-23T00:36:51;28.67;;;24.60;;
44218;SDS011;29889;52.034;5.570;2023-02-23T00:37:25;27.20;;;23.33;;
44218;SDS011;29889;52.034;5.570;2023-02-23T00:37:56;26.50;;;23.60;;
44218;SDS011;29889;52.034;5.570;2023-02-23T00:38:27;26.50;;;23.37;;
44218;SDS011;29889;52.034;5.570;2023-02-23T00:39:05;27.48;;;23.42;;
44218;SDS011;29889;52.034;5.570;2023-02-23T00:39:46;25.70;;;22.95;;
44218;SDS011;29889;52.034;5.570;2023-02-23T00:40:17;29.00;;;23.33;;
44218;SDS011;29889;52.034;5.570;2023-02-23T00:40:52;24.88;;;21.58;;
44218;SDS011;29889;52.034;5.570;2023-02-23T00:41:23;27.33;;;23.63;;
44218;SDS011;29889;52.034;5.570;2023-02-23T00:41:57;27.98;;;22.05;;
44218;SDS011;29889;52.034;5.570;2023-02-23T00:42:31;25.70;;;22.90;;
44218;SDS011;29889;52.034;5.570;2023-02-23T00:43:02;26.80;;;23.37;;
44218;SDS011;29889;52.034;5.570;2023-02-23T00:43:34;27.97;;;24.53;;
44218;SDS011;29889;52.034;5.570;2023-02-23T00:44:05;29.45;;;25.15;;
44218;SDS011;29889;52.034;5.570;2023-02-23T00:44:36;25.93;;;22.87;;
44218;SDS011;29889;52.034;5.570;2023-02-23T00:45:10;26.77;;;23.90;;
44218;SDS011;29889;52.034;5.570;2023-02-23T00:45:41;27.52;;;23.25;;
44218;SDS011;29889;52.034;5.570;2023-02-23T00:46:13;28.23;;;24.47;;
44218;SDS011;29889;52.034;5.570;2023-02-23T00:46:48;28.42;;;24.27;;
44218;SDS011;29889;52.034;5.570;2023-02-23T00:47:20;25.70;;;22.55;;
44218;SDS011;29889;52.034;5.570;2023-02-23T00:47:51;25.38;;;22.55;;
44218;SDS011;29889;52.034;5.570;2023-02-23T00:48:22;27.75;;;24.27;;
44218;SDS011;29889;52.034;5.570;2023-02-23T00:48:54;27.35;;;23.45;;
44218;SDS011;29889;52.034;5.570;2023-02-23T00:49:25;25.95;;;23.17;;
44218;SDS011;29889;52.034;5.570;2023-02-23T00:49:56;27.75;;;24.35;;
44218;SDS011;29889;52.034;5.570;2023-02-23T00:50:27;26.27;;;23.15;;
44218;SDS011;29889;52.034;5.570;2023-02-23T00:51:02;26.13;;;23.25;;
44218;SDS011;29889;52.034;5.570;2023-02-23T00:51:34;26.50;;;23.15;;
44218;SDS011;29889;52.034;5.570;2023-02-23T00:52:06;24.73;;;22.05;;
44218;SDS011;29889;52.034;5.570;2023-02-23T00:52:40;25.27;;;22.53;;
44218;SDS011;29889;52.034;5.570;2023-02-23T00:53:12;26.10;;;23.15;;
44218;SDS011;29889;52.034;5.570;2023-02-23T00:53:43;26.73;;;23.90;;
44218;SDS011;29889;52.034;5.570;2023-02-23T00:54:15;28.38;;;25.13;;
44218;SDS011;29889;52.034;5.570;2023-02-23T00:54:46;25.15;;;21.70;;
44218;SDS011;29889;52.034;5.570;2023-02-23T00:55:17;27.70;;;24.17;;
44218;SDS011;29889;52.034;5.570;2023-02-23T00:55:48;28.25;;;24.42;;
44218;SDS011;29889;52.034;5.570;2023-02-23T00:56:19;26.60;;;23.67;;
44218;SDS011;29889;52.034;5.570;2023-02-23T00:56:51;26.48;;;23.67;;
44218;SDS011;29889;52.034;5.570;2023-02-23T00:57:22;26.50;;;23.67;;
44218;SDS011;29889;52.034;5.570;2023-02-23T00:57:52;26.30;;;23.45;;
44218;SDS011;29889;52.034;5.570;2023-02-23T00:58:24;26.37;;;23.47;;
44218;SDS011;29889;52.034;5.570;2023-02-23T00:58:55;27.02;;;24.00;;
44218;SDS011;29889;52.034;5.570;2023-02-23T00:59:26;25.80;;;23.08;;
44218;SDS011;29889;52.034;5.570;2023-02-23T00:59:58;26.70;;;23.83;;
44218;SDS011;29889;52.034;5.570;2023-02-23T01:00:29;26.70;;;23.87;;
44218;SDS011;29889;52.034;5.570;2023-02-23T01:01:01;25.73;;;22.98;;
44218;SDS011;29889;52.034;5.570;2023-02-23T01:01:32;27.33;;;22.88;;
44218;SDS011;29889;52.034;5.570;2023-02-23T01:02:03;26.25;;;23.42;;
44218;SDS011;29889;52.034;5.570;2023-02-23T01:02:34;26.90;;;24.00;;
44218;SDS011;29889;52.034;5.570;2023-02-23T01:03:05;26.70;;;23.30;;
44218;SDS011;29889;52.034;5.570;2023-02-23T01:03:36;26.73;;;23.83;;
44218;SDS011;29889;52.034;5.570;2023-02-23T01:04:07;27.10;;;24.05;;
44218;SDS011;29889;52.034;5.570;2023-02-23T01:04:38;25.88;;;23.08;;
44218;SDS011;29889;52.034;5.570;2023-02-23T01:05:09;28.15;;;25.05;;
44218;SDS011;29889;52.034;5.570;2023-02-23T01:05:40;26.15;;;23.23;;
44218;SDS011;29889;52.034;5.570;2023-02-23T01:06:13;26.98;;;22.67;;
44218;SDS011;29889;52.034;5.570;2023-02-23T01:06:44;25.25;;;22.65;;
44218;SDS011;29889;52.034;5.570;2023-02-23T01:07:15;25.07;;;22.37;;
44218;SDS011;29889;52.034;5.570;2023-02-23T01:07:46;26.40;;;23.60;;
44218;SDS011;29889;52.034;5.570;2023-02-23T01:08:18;24.38;;;21.75;;
44218;SDS011;29889;52.034;5.570;2023-02-23T01:08:49;25.33;;;22.33;;
44218;SDS011;29889;52.034;5.570;2023-02-23T01:09:25;25.25;;;21.85;;
44218;SDS011;29889;52.034;5.570;2023-02-23T01:09:57;25.77;;;22.98;;
44218;SDS011;29889;52.034;5.570;2023-02-23T01:10:28;26.37;;;23.57;;
44218;SDS011;29889;52.034;5.570;2023-02-23T01:11:04;26.67;;;23.30;;
44218;SDS011;29889;52.034;5.570;2023-02-23T01:11:35;24.58;;;22.05;;
44218;SDS011;29889;52.034;5.570;2023-02-23T01:12:06;25.52;;;22.67;;
44218;SDS011;29889;52.034;5.570;2023-02-23T01:12:37;25.40;;;22.70;;
44218;SDS011;29889;52.034;5.570;2023-02-23T01:13:09;28.17;;;24.60;;
44218;SDS011;29889;52.034;5.570;2023-02-23T01:13:41;25.50;;;22.75;;
44218;SDS011;29889;52.034;5.570;2023-02-23T01:14:12;26.33;;;23.17;;
44218;SDS011;29889;52.034;5.570;2023-02-23T01:14:43;26.38;;;21.73;;
44218;SDS011;29889;52.034;5.570;2023-02-23T01:15:17;26.20;;;23.30;;
44218;SDS011;29889;52.034;5.570;2023-02-23T01:15:48;27.10;;;22.90;;
44218;SDS011;29889;52.034;5.570;2023-02-23T01:16:22;25.25;;;22.52;;
44218;SDS011;29889;52.034;5.570;2023-02-23T01:16:56;25.92;;;22.23;;
44218;SDS011;29889;52.034;5.570;2023-02-23T01:17:28;26.05;;;23.25;;
44218;SDS011;29889;52.034;5.570;2023-02-23T01:17:59;25.92;;;22.63;;
44218;SDS011;29889;52.034;5.570;2023-02-23T01:18:30;26.00;;;23.27;;
44218;SDS011;29889;52.034;5.570;2023-02-23T01:19:03;25.40;;;22.65;;
44218;SDS011;29889;52.034;5.570;2023-02-23T01:19:34;24.67;;;21.65;;
44218;SDS011;29889;52.034;5.570;2023-02-23T01:20:05;26.50;;;23.60;;
44218;SDS011;29889;52.034;5.570;2023-02-23T01:20:47;25.95;;;21.58;;
44218;SDS011;29889;52.034;5.570;2023-02-23T01:21:24;25.02;;;22.33;;
44218;SDS011;29889;52.034;5.570;2023-02-23T01:21:55;28.55;;;23.48;;
44218;SDS011;29889;52.034;5.570;2023-02-23T01:22:26;28.15;;;24.27;;
44218;SDS011;29889;52.034;5.570;2023-02-23T01:22:57;25.93;;;22.97;;
44218;SDS011;29889;52.034;5.570;2023-02-23T01:23:28;25.20;;;22.33;;
44218;SDS011;29889;52.034;5.570;2023-02-23T01:23:59;26.45;;;23.20;;
44218;SDS011;29889;52.034;5.570;2023-02-23T01:24:31;26.90;;;23.90;;
44218;SDS011;29889;52.034;5.570;2023-02-23T01:25:02;24.87;;;21.97;;
44218;SDS011;29889;52.034;5.570;2023-02-23T01:25:33;25.15;;;22.55;;
44218;SDS011;29889;52.034;5.570;2023-02-23T01:26:04;25.20;;;22.45;;
44218;SDS011;29889;52.034;5.570;2023-02-23T01:26:36;26.63;;;23.40;;
44218;SDS011;29889;52.034;5.570;2023-02-23T01:27:07;26.55;;;22.48;;
44218;SDS011;29889;52.034;5.570;2023-02-23T01:27:39;25.40;;;22.70;;
44218;SDS011;29889;52.034;5.570;2023-02-23T01:28:10;25.80;;;22.95;;
44218;SDS011;29889;52.034;5.570;2023-02-23T01:28:41;27.63;;;23.33;;
44218;SDS011;29889;52.034;5.570;2023-02-23T01:29:16;25.33;;;22.73;;
44218;SDS011;29889;52.034;5.570;2023-02-23T01:29:47;24.60;;;22.00;;
44218;SDS011;29889;52.034;5.570;2023-02-23T01:30:18;27.30;;;23.33;;
44218;SDS011;29889;52.034;5.570;2023-02-23T01:30:49;25.33;;;22.63;;
44218;SDS011;29889;52.034;5.570;2023-02-23T01:31:20;27.13;;;24.23;;
44218;SDS011;29889;52.034;5.570;2023-02-23T01:31:51;25.83;;;23.13;;
44218;SDS011;29889;52.034;5.570;2023-02-23T01:32:22;25.37;;;22.10;;
44218;SDS011;29889;52.034;5.570;2023-02-23T01:32:54;26.48;;;23.17;;
44218;SDS011;29889;52.034;5.570;2023-02-23T01:33:25;27.08;;;22.65;;
44218;SDS011;29889;52.034;5.570;2023-02-23T01:33:56;24.80;;;22.17;;
44218;SDS011;29889;52.034;5.570;2023-02-23T01:34:28;25.30;;;22.67;;
44218;SDS011;29889;52.034;5.570;2023-02-23T01:34:59;25.30;;;22.60;;
44218;SDS011;29889;52.034;5.570;2023-02-23T01:35:30;26.10;;;23.33;;
44218;SDS011;29889;52.034;5.570;2023-02-23T01:36:02;25.60;;;22.27;;
44218;SDS011;29889;52.034;5.570;2023-02-23T01:36:36;26.48;;;23.60;;
44218;SDS011;29889;52.034;5.570;2023-02-23T01:37:10;27.48;;;23.17;;
44218;SDS011;29889;52.034;5.570;2023-02-23T01:37:41;24.80;;;22.17;;
44218;SDS011;29889;52.034;5.570;2023-02-23T01:38:12;27.50;;;22.88;;
44218;SDS011;29889;52.034;5.570;2023-02-23T01:38:44;26.63;;;22.70;;
44218;SDS011;29889;52.034;5.570;2023-02-23T01:39:16;27.25;;;23.77;;
44218;SDS011;29889;52.034;5.570;2023-02-23T01:39:48;25.00;;;22.15;;
44218;SDS011;29889;52.034;5.570;2023-02-23T01:40:19;25.60;;;22.80;;
44218;SDS011;29889;52.034;5.570;2023-02-23T01:41:00;24.80;;;21.67;;
44218;SDS011;29889;52.034;5.570;2023-02-23T01:41:31;28.15;;;23.90;;
44218;SDS011;29889;52.034;5.570;2023-02-23T01:42:02;25.23;;;22.48;;
44218;SDS011;29889;52.034;5.570;2023-02-23T01:42:35;24.95;;;21.90;;
44218;SDS011;29889;52.034;5.570;2023-02-23T01:43:11;24.48;;;21.77;;
44218;SDS011;29889;52.034;5.570;2023-02-23T01:44:02;26.25;;;23.45;;
44218;SDS011;29889;52.034;5.570;2023-02-23T01:45:51;24.98;;;21.35;;
44218;SDS011;29889;52.034;5.570;2023-02-23T01:46:05;25.15;;;21.60;;
44218;SDS011;29889;52.034;5.570;2023-02-23T01:46:37;23.57;;;20.87;;
44218;SDS011;29889;52.034;5.570;2023-02-23T01:47:08;25.13;;;21.90;;
44218;SDS011;29889;52.034;5.570;2023-02-23T01:47:39;25.77;;;22.57;;
44218;SDS011;29889;52.034;5.570;2023-02-23T01:48:14;25.47;;;22.70;;
44218;SDS011;29889;52.034;5.570;2023-02-23T01:48:47;24.17;;;21.58;;
44218;SDS011;29889;52.034;5.570;2023-02-23T01:49:19;25.92;;;21.90;;
44218;SDS011;29889;52.034;5.570;2023-02-23T01:49:54;24.50;;;21.88;;
44218;SDS011;29889;52.034;5.570;2023-02-23T01:50:25;23.42;;;20.88;;
44218;SDS011;29889;52.034;5.570;2023-02-23T01:51:01;24.70;;;21.98;;
44218;SDS011;29889;52.034;5.570;2023-02-23T01:51:36;24.55;;;21.88;;
44218;SDS011;29889;52.034;5.570;2023-02-23T01:52:42;25.90;;;21.57;;
44218;SDS011;29889;52.034;5.570;2023-02-23T01:53:14;25.35;;;22.23;;
44218;SDS011;29889;52.034;5.570;2023-02-23T01:53:47;28.20;;;24.40;;
44218;SDS011;29889;52.034;5.570;2023-02-23T01:54:20;25.42;;;22.73;;
44218;SDS011;29889;52.034;5.570;2023-02-23T01:54:53;24.58;;;21.73;;
44218;SDS011;29889;52.034;5.570;2023-02-23T01:55:25;24.63;;;22.00;;
44218;SDS011;29889;52.034;5.570;2023-02-23T01:56:09;24.42;;;21.88;;
44218;SDS011;29889;52.034;5.570;2023-02-23T01:56:41;24.92;;;22.23;;
44218;SDS011;29889;52.034;5.570;2023-02-23T01:57:13;25.02;;;22.38;;
44218;SDS011;29889;52.034;5.570;2023-02-23T01:57:44;25.83;;;22.30;;
44218;SDS011;29889;52.034;5.570;2023-02-23T01:58:17;25.55;;;22.65;;
44218;SDS011;29889;52.034;5.570;2023-02-23T01:58:49;24.95;;;22.15;;
44218;SDS011;29889;52.034;5.570;2023-02-23T01:59:21;24.77;;;21.60;;
44218;SDS011;29889;52.034;5.570;2023-02-23T01:59:52;24.37;;;21.73;;
44218;SDS011;29889;52.034;5.570;2023-02-23T02:00:23;25.33;;;22.35;;
44218;SDS011;29889;52.034;5.570;2023-02-23T02:00:56;24.55;;;21.92;;
44218;SDS011;29889;52.034;5.570;2023-02-23T02:01:31;26.27;;;22.98;;
44218;SDS011;29889;52.034;5.570;2023-02-23T02:02:02;26.00;;;23.20;;
44218;SDS011;29889;52.034;5.570;2023-02-23T02:02:36;24.42;;;21.83;;
44218;SDS011;29889;52.034;5.570;2023-02-23T02:03:08;24.58;;;21.90;;
44218;SDS011;29889;52.034;5.570;2023-02-23T02:03:55;25.70;;;22.88;;
44218;SDS011;29889;52.034;5.570;2023-02-23T02:04:26;24.00;;;21.48;;
44218;SDS011;29889;52.034;5.570;2023-02-23T02:05:03;26.92;;;23.10;;
44218;SDS011;29889;52.034;5.570;2023-02-23T02:05:37;23.40;;;20.88;;
44218;SDS011;29889;52.034;5.570;2023-02-23T02:06:08;23.98;;;21.48;;
44218;SDS011;29889;52.034;5.570;2023-02-23T02:06:42;25.17;;;22.45;;
44218;SDS011;29889;52.034;5.570;2023-02-23T02:07:15;23.45;;;20.95;;
44218;SDS011;29889;52.034;5.570;2023-02-23T02:07:47;25.08;;;22.38;;
44218;SDS011;29889;52.034;5.570;2023-02-23T02:08:19;24.67;;;21.83;;
44218;SDS011;29889;52.034;5.570;2023-02-23T02:08:53;25.15;;;22.45;;
44218;SDS011;29889;52.034;5.570;2023-02-23T02:09:25;25.33;;;22.63;;
44218;SDS011;29889;52.034;5.570;2023-02-23T02:09:57;25.13;;;22.52;;
44218;SDS011;29889;52.034;5.570;2023-02-23T02:10:40;25.00;;;21.55;;
44218;SDS011;29889;52.034;5.570;2023-02-23T02:11:17;23.65;;;21.13;;
44218;SDS011;29889;52.034;5.570;2023-02-23T02:12:05;25.05;;;22.35;;
44218;SDS011;29889;52.034;5.570;2023-02-23T02:12:38;26.30;;;22.88;;
44218;SDS011;29889;52.034;5.570;2023-02-23T02:13:09;24.83;;;22.13;;
44218;SDS011;29889;52.034;5.570;2023-02-23T02:13:43;26.50;;;23.20;;
44218;SDS011;29889;52.034;5.570;2023-02-23T02:14:15;24.23;;;21.65;;
44218;SDS011;29889;52.034;5.570;2023-02-23T02:14:47;25.65;;;22.92;;
44218;SDS011;29889;52.034;5.570;2023-02-23T02:15:21;23.55;;;20.80;;
44218;SDS011;29889;52.034;5.570;2023-02-23T02:16:46;25.83;;;23.02;;
44218;SDS011;29889;52.034;5.570;2023-02-23T02:18:18;23.92;;;20.85;;
44218;SDS011;29889;52.034;5.570;2023-02-23T02:21:15;23.80;;;21.20;;
44218;SDS011;29889;52.034;5.570;2023-02-23T02:21:58;26.98;;;21.42;;
44218;SDS011;29889;52.034;5.570;2023-02-23T02:23:21;23.73;;;21.23;;
44218;SDS011;29889;52.034;5.570;2023-02-23T02:24:53;25.90;;;21.90;;
44218;SDS011;29889;52.034;5.570;2023-02-23T02:25:36;25.05;;;22.42;;
44218;SDS011;29889;52.034;5.570;2023-02-23T02:33:45;24.27;;;21.65;;
44218;SDS011;29889;52.034;5.570;2023-02-23T02:34:30;23.88;;;21.38;;
44218;SDS011;29889;52.034;5.570;2023-02-23T02:38:17;24.55;;;21.67;;
44218;SDS011;29889;52.034;5.570;2023-02-23T02:41:24;24.25;;;20.85;;
44218;SDS011;29889;52.034;5.570;2023-02-23T02:42:07;24.90;;;21.20;;
44218;SDS011;29889;52.034;5.570;2023-02-23T02:43:18;25.95;;;22.20;;
44218;SDS011;29889;52.034;5.570;2023-02-23T02:43:58;27.17;;;23.27;;
44218;SDS011;29889;52.034;5.570;2023-02-23T02:44:36;24.95;;;22.25;;
44218;SDS011;29889;52.034;5.570;2023-02-23T02:45:18;25.52;;;22.77;;
44218;SDS011;29889;52.034;5.570;2023-02-23T02:46:43;23.20;;;20.80;;
44218;SDS011;29889;52.034;5.570;2023-02-23T02:47:27;24.48;;;21.83;;
44218;SDS011;29889;52.034;5.570;2023-02-23T02:48:05;26.50;;;22.38;;
44218;SDS011;29889;52.034;5.570;2023-02-23T02:48:42;25.15;;;21.48;;
44218;SDS011;29889;52.034;5.570;2023-02-23T02:49:50;23.53;;;21.03;;
44218;SDS011;29889;52.034;5.570;2023-02-23T02:50:29;23.20;;;20.75;;
44218;SDS011;29889;52.034;5.570;2023-02-23T02:52:04;26.63;;;21.92;;
44218;SDS011;29889;52.034;5.570;2023-02-23T02:52:43;26.13;;;22.13;;
44218;SDS011;29889;52.034;5.570;2023-02-23T02:53:24;25.25;;;21.52;;
44218;SDS011;29889;52.034;5.570;2023-02-23T02:54:51;24.30;;;21.80;;
44218;SDS011;29889;52.034;5.570;2023-02-23T02:55:25;24.74;;;22.02;;
44218;SDS011;29889;52.034;5.570;2023-02-23T02:55:58;24.88;;;21.70;;
44218;SDS011;29889;52.034;5.570;2023-02-23T02:56:36;24.25;;;20.95;;
44218;SDS011;29889;52.034;5.570;2023-02-23T02:57:09;24.52;;;21.83;;
44218;SDS011;29889;52.034;5.570;2023-02-23T02:57:41;25.83;;;22.67;;
44218;SDS011;29889;52.034;5.570;2023-02-23T02:58:13;24.95;;;21.75;;
44218;SDS011;29889;52.034;5.570;2023-02-23T02:58:45;24.90;;;22.02;;
44218;SDS011;29889;52.034;5.570;2023-02-23T02:59:19;24.80;;;22.20;;
44218;SDS011;29889;52.034;5.570;2023-02-23T03:00:12;25.17;;;21.75;;
44218;SDS011;29889;52.034;5.570;2023-02-23T03:01:07;25.75;;;22.00;;
44218;SDS011;29889;52.034;5.570;2023-02-23T03:01:57;24.55;;;21.40;;
44218;SDS011;29889;52.034;5.570;2023-02-23T03:02:47;26.15;;;22.83;;
44218;SDS011;29889;52.034;5.570;2023-02-23T03:03:38;24.05;;;21.45;;
44218;SDS011;29889;52.034;5.570;2023-02-23T03:04:28;25.70;;;22.70;;
44218;SDS011;29889;52.034;5.570;2023-02-23T03:05:19;24.55;;;21.83;;
44218;SDS011;29889;52.034;5.570;2023-02-23T03:06:10;23.83;;;21.20;;
44218;SDS011;29889;52.034;5.570;2023-02-23T03:07:00;24.02;;;21.38;;
44218;SDS011;29889;52.034;5.570;2023-02-23T03:07:54;24.48;;;20.98;;
44218;SDS011;29889;52.034;5.570;2023-02-23T03:09:54;26.83;;;22.10;;
44218;SDS011;29889;52.034;5.570;2023-02-23T03:11:58;26.33;;;22.10;;
44218;SDS011;29889;52.034;5.570;2023-02-23T03:15:56;25.60;;;21.95;;
44218;SDS011;29889;52.034;5.570;2023-02-23T03:19:45;24.67;;;21.20;;
44218;SDS011;29889;52.034;5.570;2023-02-23T03:20:40;23.38;;;20.42;;
44218;SDS011;29889;52.034;5.570;2023-02-23T03:21:35;25.88;;;22.48;;
44218;SDS011;29889;52.034;5.570;2023-02-23T03:23:32;25.55;;;21.60;;
44218;SDS011;29889;52.034;5.570;2023-02-23T03:23:58;24.30;;;20.50;;
44218;SDS011;29889;52.034;5.570;2023-02-23T03:24:55;24.00;;;21.23;;
44218;SDS011;29889;52.034;5.570;2023-02-23T03:25:48;25.38;;;20.88;;
44218;SDS011;29889;52.034;5.570;2023-02-23T03:26:42;25.02;;;22.33;;
44218;SDS011;29889;52.034;5.570;2023-02-23T03:27:38;22.92;;;20.38;;
44218;SDS011;29889;52.034;5.570;2023-02-23T03:29:26;26.90;;;21.30;;
44218;SDS011;29889;52.034;5.570;2023-02-23T03:30:42;24.90;;;21.02;;
44218;SDS011;29889;52.034;5.570;2023-02-23T03:31:33;27.05;;;22.20;;
44218;SDS011;29889;52.034;5.570;2023-02-23T03:32:29;24.08;;;20.83;;
44218;SDS011;29889;52.034;5.570;2023-02-23T03:34:06;23.52;;;21.00;;
44218;SDS011;29889;52.034;5.570;2023-02-23T03:34:35;25.73;;;22.35;;
44218;SDS011;29889;52.034;5.570;2023-02-23T03:35:28;23.67;;;19.98;;
44218;SDS011;29889;52.034;5.570;2023-02-23T03:36:23;23.75;;;20.55;;
44218;SDS011;29889;52.034;5.570;2023-02-23T03:37:57;23.80;;;20.45;;
44218;SDS011;29889;52.034;5.570;2023-02-23T03:38:37;24.10;;;20.23;;
44218;SDS011;29889;52.034;5.570;2023-02-23T03:39:33;23.30;;;19.70;;
44218;SDS011;29889;52.034;5.570;2023-02-23T03:40:25;24.55;;;21.88;;
44218;SDS011;29889;52.034;5.570;2023-02-23T03:41:16;24.05;;;21.40;;
44218;SDS011;29889;52.034;5.570;2023-02-23T03:42:09;23.60;;;20.83;;
44218;SDS011;29889;52.034;5.570;2023-02-23T03:42:59;24.80;;;21.77;;
44218;SDS011;29889;52.034;5.570;2023-02-23T03:43:55;25.55;;;22.13;;
44218;SDS011;29889;52.034;5.570;2023-02-23T03:44:46;26.65;;;22.08;;
44218;SDS011;29889;52.034;5.570;2023-02-23T03:45:36;26.90;;;22.13;;
44218;SDS011;29889;52.034;5.570;2023-02-23T03:46:26;25.77;;;21.50;;
44218;SDS011;29889;52.034;5.570;2023-02-23T03:47:18;24.75;;;20.98;;
44218;SDS011;29889;52.034;5.570;2023-02-23T03:48:11;23.23;;;20.70;;
44218;SDS011;29889;52.034;5.570;2023-02-23T03:49:02;25.73;;;22.65;;
44218;SDS011;29889;52.034;5.570;2023-02-23T03:49:52;25.48;;;22.08;;
44218;SDS011;29889;52.034;5.570;2023-02-23T03:50:45;26.08;;;22.55;;
44218;SDS011;29889;52.034;5.570;2023-02-23T03:51:36;28.23;;;22.17;;
44218;SDS011;29889;52.034;5.570;2023-02-23T03:52:30;24.67;;;21.92;;
44218;SDS011;29889;52.034;5.570;2023-02-23T03:53:23;25.95;;;20.55;;
44218;SDS011;29889;52.034;5.570;2023-02-23T03:54:15;26.17;;;22.70;;
44218;SDS011;29889;52.034;5.570;2023-02-23T03:55:17;24.50;;;21.45;;
44218;SDS011;29889;52.034;5.570;2023-02-23T03:56:08;23.60;;;20.95;;
44218;SDS011;29889;52.034;5.570;2023-02-23T03:57:00;24.63;;;21.95;;
44218;SDS011;29889;52.034;5.570;2023-02-23T03:57:51;24.98;;;22.10;;
44218;SDS011;29889;52.034;5.570;2023-02-23T03:58:45;28.85;;;23.13;;
44218;SDS011;29889;52.034;5.570;2023-02-23T03:59:37;25.60;;;21.30;;
44218;SDS011;29889;52.034;5.570;2023-02-23T04:00:29;27.00;;;21.45;;
44218;SDS011;29889;52.034;5.570;2023-02-23T04:01:21;24.27;;;21.52;;
44218;SDS011;29889;52.034;5.570;2023-02-23T04:02:12;25.25;;;21.15;;
44218;SDS011;29889;52.034;5.570;2023-02-23T04:03:04;24.20;;;20.92;;
44218;SDS011;29889;52.034;5.570;2023-02-23T04:03:55;24.95;;;21.70;;
44218;SDS011;29889;52.034;5.570;2023-02-23T04:04:46;27.45;;;22.88;;
44218;SDS011;29889;52.034;5.570;2023-02-23T04:05:37;26.35;;;21.48;;
44218;SDS011;29889;52.034;5.570;2023-02-23T04:06:28;23.80;;;21.20;;
44218;SDS011;29889;52.034;5.570;2023-02-23T04:07:20;25.60;;;21.27;;
44218;SDS011;29889;52.034;5.570;2023-02-23T04:08:11;24.70;;;21.95;;
44218;SDS011;29889;52.034;5.570;2023-02-23T04:09:04;23.98;;;21.35;;
44218;SDS011;29889;52.034;5.570;2023-02-23T04:09:54;25.17;;;21.20;;
44218;SDS011;29889;52.034;5.570;2023-02-23T04:10:45;26.38;;;20.52;;
44218;SDS011;29889;52.034;5.570;2023-02-23T04:11:45;26.42;;;21.70;;